sensor_id;sensor_type;location;lat;lon;timestamp;pressure;altitude;pressure_sealevel;temperature
82780;BMP280;72511;45.120;20.720;2023-08-31T00:02:09;99696.03;;;19.00
82780;BMP280;72511;45.120;20.720;2023-08-31T00:12:10;99691.78;;;18.93
82780;BMP280;72511;45.120;20.720;2023-08-31T00:22:10;99709.59;;;18.61
82780;BMP280;72511;45.120;20.720;2023-08-31T00:32:11;99727.50;;;18.57
82780;BMP280;72511;45.120;20.720;2023-08-31T00:42:13;99732.47;;;18.06
82780;BMP280;72511;45.120;20.720;2023-08-31T00:52:13;99755.94;;;18.18
82780;BMP280;72511;45.120;20.720;2023-08-31T01:02:22;99744.09;;;18.37
82780;BMP280;72511;45.120;20.720;2023-08-31T01:12:36;99753.28;;;18.34
82780;BMP280;72511;45.120;20.720;2023-08-31T01:22:42;99769.22;;;18.30
82780;BMP280;72511;45.120;20.720;2023-08-31T01:32:44;99773.34;;;18.20
82780;BMP280;72511;45.120;20.720;2023-08-31T01:42:46;99759.72;;;18.26
82780;BMP280;72511;45.120;20.720;2023-08-31T01:52:47;99766.06;;;18.42
82780;BMP280;72511;45.120;20.720;2023-08-31T02:02:48;99765.00;;;18.34
82780;BMP280;72511;45.120;20.720;2023-08-31T02:12:48;99775.63;;;18.58
82780;BMP280;72511;45.120;20.720;2023-08-31T02:22:49;99769.31;;;18.41
82780;BMP280;72511;45.120;20.720;2023-08-31T02:32:49;99773.31;;;18.45
82780;BMP280;72511;45.120;20.720;2023-08-31T02:42:50;99792.19;;;18.43
82780;BMP280;72511;45.120;20.720;2023-08-31T02:52:51;99793.63;;;18.33
82780;BMP280;72511;45.120;20.720;2023-08-31T03:02:51;99809.81;;;18.32
82780;BMP280;72511;45.120;20.720;2023-08-31T03:12:52;99805.53;;;18.25
82780;BMP280;72511;45.120;20.720;2023-08-31T03:22:53;99803.66;;;18.06
82780;BMP280;72511;45.120;20.720;2023-08-31T03:32:54;99813.13;;;17.79
82780;BMP280;72511;45.120;20.720;2023-08-31T03:42:54;99809.41;;;17.57
82780;BMP280;72511;45.120;20.720;2023-08-31T03:52:55;99834.63;;;17.66
82780;BMP280;72511;45.120;20.720;2023-08-31T04:02:57;99847.69;;;17.57
82780;BMP280;72511;45.120;20.720;2023-08-31T04:12:58;99851.16;;;17.52
82780;BMP280;72511;45.120;20.720;2023-08-31T04:23:02;99860.69;;;17.62
82780;BMP280;72511;45.120;20.720;2023-08-31T04:33:03;99870.28;;;17.72
82780;BMP280;72511;45.120;20.720;2023-08-31T04:43:03;99884.22;;;17.99
82780;BMP280;72511;45.120;20.720;2023-08-31T04:53:04;99887.34;;;17.87
82780;BMP280;72511;45.120;20.720;2023-08-31T05:03:05;99883.69;;;18.57
82780;BMP280;72511;45.120;20.720;2023-08-31T05:13:05;99898.91;;;19.47
82780;BMP280;72511;45.120;20.720;2023-08-31T05:23:06;99874.44;;;19.49
82780;BMP280;72511;45.120;20.720;2023-08-31T05:33:06;99895.94;;;19.56
82780;BMP280;72511;45.120;20.720;2023-08-31T05:43:07;99918.72;;;20.78
82780;BMP280;72511;45.120;20.720;2023-08-31T05:53:07;99935.84;;;21.11
82780;BMP280;72511;45.120;20.720;2023-08-31T06:03:08;99937.34;;;22.04
82780;BMP280;72511;45.120;20.720;2023-08-31T06:13:09;99949.25;;;23.37
82780;BMP280;72511;45.120;20.720;2023-08-31T06:23:10;99970.63;;;23.55
82780;BMP280;72511;45.120;20.720;2023-08-31T06:33:10;99990.34;;;24.27
82780;BMP280;72511;45.120;20.720;2023-08-31T06:43:11;99978.09;;;25.86
82780;BMP280;72511;45.120;20.720;2023-08-31T06:53:11;99992.06;;;27.63
82780;BMP280;72511;45.120;20.720;2023-08-31T07:03:12;100000.25;;;28.21
82780;BMP280;72511;45.120;20.720;2023-08-31T07:13:12;100066.28;;;29.59
82780;BMP280;72511;45.120;20.720;2023-08-31T07:23:13;100008.44;;;26.88
82780;BMP280;72511;45.120;20.720;2023-08-31T07:33:13;100029.69;;;26.58
82780;BMP280;72511;45.120;20.720;2023-08-31T07:43:14;100041.44;;;26.99
82780;BMP280;72511;45.120;20.720;2023-08-31T07:53:14;100041.75;;;27.81
82780;BMP280;72511;45.120;20.720;2023-08-31T08:03:15;100062.19;;;28.29
82780;BMP280;72511;45.120;20.720;2023-08-31T08:13:15;100067.38;;;28.17
82780;BMP280;72511;45.120;20.720;2023-08-31T08:23:16;100063.94;;;27.66
82780;BMP280;72511;45.120;20.720;2023-08-31T08:33:17;100066.25;;;30.15
82780;BMP280;72511;45.120;20.720;2023-08-31T08:43:25;100074.50;;;29.49
82780;BMP280;72511;45.120;20.720;2023-08-31T08:53:25;100083.69;;;28.43
82780;BMP280;72511;45.120;20.720;2023-08-31T09:03:26;100080.19;;;29.90
82780;BMP280;72511;45.120;20.720;2023-08-31T09:13:28;100088.31;;;30.45
82780;BMP280;72511;45.120;20.720;2023-08-31T09:23:29;100095.78;;;30.42
82780;BMP280;72511;45.120;20.720;2023-08-31T09:33:29;100070.41;;;29.50
82780;BMP280;72511;45.120;20.720;2023-08-31T09:43:30;100077.69;;;29.38
82780;BMP280;72511;45.120;20.720;2023-08-31T09:53:31;100085.94;;;29.21
82780;BMP280;72511;45.120;20.720;2023-08-31T10:03:32;100071.97;;;27.85
82780;BMP280;72511;45.120;20.720;2023-08-31T10:13:33;100082.47;;;29.53
82780;BMP280;72511;45.120;20.720;2023-08-31T10:23:34;100092.97;;;29.37
82780;BMP280;72511;45.120;20.720;2023-08-31T10:33:45;100089.59;;;29.46
82780;BMP280;72511;45.120;20.720;2023-08-31T10:43:50;100077.25;;;27.10
82780;BMP280;72511;45.120;20.720;2023-08-31T10:53:51;100090.81;;;29.60
82780;BMP280;72511;45.120;20.720;2023-08-31T11:04:09;100096.72;;;29.32
82780;BMP280;72511;45.120;20.720;2023-08-31T11:14:11;100102.69;;;30.17
82780;BMP280;72511;45.120;20.720;2023-08-31T11:24:11;100084.94;;;30.29
82780;BMP280;72511;45.120;20.720;2023-08-31T11:34:16;100105.34;;;31.07
82780;BMP280;72511;45.120;20.720;2023-08-31T11:44:17;100107.75;;;30.77
82780;BMP280;72511;45.120;20.720;2023-08-31T11:54:18;100103.66;;;31.11
82780;BMP280;72511;45.120;20.720;2023-08-31T12:04:22;100099.34;;;30.60
82780;BMP280;72511;45.120;20.720;2023-08-31T12:14:24;100086.91;;;30.36
82780;BMP280;72511;45.120;20.720;2023-08-31T12:24:25;100089.25;;;30.23
82780;BMP280;72511;45.120;20.720;2023-08-31T12:34:26;100087.03;;;30.21
82780;BMP280;72511;45.120;20.720;2023-08-31T12:44:26;100080.84;;;30.64
82780;BMP280;72511;45.120;20.720;2023-08-31T12:54:27;100093.91;;;30.45
82780;BMP280;72511;45.120;20.720;2023-08-31T13:04:27;100091.31;;;30.22
82780;BMP280;72511;45.120;20.720;2023-08-31T13:14:28;100075.59;;;30.51
82780;BMP280;72511;45.120;20.720;2023-08-31T13:24:28;100079.13;;;30.52
82780;BMP280;72511;45.120;20.720;2023-08-31T13:34:29;100076.88;;;30.58
82780;BMP280;72511;45.120;20.720;2023-08-31T13:44:30;100081.19;;;31.19
82780;BMP280;72511;45.120;20.720;2023-08-31T13:54:31;100094.78;;;31.58
82780;BMP280;72511;45.120;20.720;2023-08-31T14:04:31;100100.75;;;31.02
82780;BMP280;72511;45.120;20.720;2023-08-31T14:14:34;100105.09;;;30.62
82780;BMP280;72511;45.120;20.720;2023-08-31T14:24:35;100109.97;;;30.37
82780;BMP280;72511;45.120;20.720;2023-08-31T14:34:36;100111.25;;;29.63
82780;BMP280;72511;45.120;20.720;2023-08-31T14:44:37;100131.19;;;28.97
82780;BMP280;72511;45.120;20.720;2023-08-31T14:54:37;100130.44;;;28.97
82780;BMP280;72511;45.120;20.720;2023-08-31T15:04:38;100135.75;;;29.25
82780;BMP280;72511;45.120;20.720;2023-08-31T15:14:38;100146.97;;;28.80
82780;BMP280;72511;45.120;20.720;2023-08-31T15:24:39;100132.97;;;27.83
82780;BMP280;72511;45.120;20.720;2023-08-31T15:34:39;100129.84;;;27.51
82780;BMP280;72511;45.120;20.720;2023-08-31T15:44:41;100109.56;;;27.71
82780;BMP280;72511;45.120;20.720;2023-08-31T15:54:42;100116.91;;;27.46
82780;BMP280;72511;45.120;20.720;2023-08-31T16:04:43;100139.47;;;27.07
82780;BMP280;72511;45.120;20.720;2023-08-31T16:14:47;100130.28;;;26.71
82780;BMP280;72511;45.120;20.720;2023-08-31T16:24:48;100152.56;;;26.38
82780;BMP280;72511;45.120;20.720;2023-08-31T16:34:52;100156.56;;;25.83
82780;BMP280;72511;45.120;20.720;2023-08-31T16:44:52;100163.72;;;25.65
82780;BMP280;72511;45.120;20.720;2023-08-31T16:54:53;100182.59;;;25.41
82780;BMP280;72511;45.120;20.720;2023-08-31T17:04:54;100185.47;;;24.91
82780;BMP280;72511;45.120;20.720;2023-08-31T17:14:55;100196.44;;;24.65
82780;BMP280;72511;45.120;20.720;2023-08-31T17:24:55;100223.47;;;24.41
82780;BMP280;72511;45.120;20.720;2023-08-31T17:34:56;100225.69;;;24.24
82780;BMP280;72511;45.120;20.720;2023-08-31T17:44:56;100234.44;;;24.09
82780;BMP280;72511;45.120;20.720;2023-08-31T17:54:57;100270.63;;;23.87
82780;BMP280;72511;45.120;20.720;2023-08-31T18:04:57;100273.94;;;23.80
82780;BMP280;72511;45.120;20.720;2023-08-31T18:14:58;100274.31;;;23.42
82780;BMP280;72511;45.120;20.720;2023-08-31T18:24:58;100283.47;;;23.26
82780;BMP280;72511;45.120;20.720;2023-08-31T18:34:59;100295.19;;;22.97
82780;BMP280;72511;45.120;20.720;2023-08-31T18:44:59;100310.56;;;22.87
82780;BMP280;72511;45.120;20.720;2023-08-31T18:55:00;100321.59;;;22.82
82780;BMP280;72511;45.120;20.720;2023-08-31T19:05:00;100321.50;;;22.52
82780;BMP280;72511;45.120;20.720;2023-08-31T19:15:01;100333.59;;;22.38
82780;BMP280;72511;45.120;20.720;2023-08-31T19:25:02;100364.44;;;22.15
82780;BMP280;72511;45.120;20.720;2023-08-31T19:35:04;100382.00;;;22.06
82780;BMP280;72511;45.120;20.720;2023-08-31T19:45:05;100377.00;;;21.72
82780;BMP280;72511;45.120;20.720;2023-08-31T19:55:06;100396.25;;;21.77
82780;BMP280;72511;45.120;20.720;2023-08-31T20:05:07;100401.22;;;21.46
82780;BMP280;72511;45.120;20.720;2023-08-31T20:15:08;100407.34;;;21.03
82780;BMP280;72511;45.120;20.720;2023-08-31T20:25:09;100416.63;;;21.22
82780;BMP280;72511;45.120;20.720;2023-08-31T20:35:10;100414.38;;;21.15
82780;BMP280;72511;45.120;20.720;2023-08-31T20:45:10;100429.41;;;21.14
82780;BMP280;72511;45.120;20.720;2023-08-31T20:55:11;100440.16;;;21.12
82780;BMP280;72511;45.120;20.720;2023-08-31T21:05:12;100452.53;;;20.91
82780;BMP280;72511;45.120;20.720;2023-08-31T21:15:13;100457.59;;;21.03
82780;BMP280;72511;45.120;20.720;2023-08-31T21:25:13;100467.84;;;20.97
82780;BMP280;72511;45.120;20.720;2023-08-31T21:35:14;100478.84;;;20.97
82780;BMP280;72511;45.120;20.720;2023-08-31T21:45:14;100485.09;;;20.98
82780;BMP280;72511;45.120;20.720;2023-08-31T21:55:15;100488.53;;;20.87
82780;BMP280;72511;45.120;20.720;2023-08-31T22:05:16;100495.38;;;20.66
82780;BMP280;72511;45.120;20.720;2023-08-31T22:15:19;100507.31;;;20.58
82780;BMP280;72511;45.120;20.720;2023-08-31T22:25:20;100504.59;;;20.63
82780;BMP280;72511;45.120;20.720;2023-08-31T22:35:21;100527.84;;;20.62
82780;BMP280;72511;45.120;20.720;2023-08-31T22:45:22;100526.38;;;20.61
82780;BMP280;72511;45.120;20.720;2023-08-31T22:55:23;100537.38;;;20.61
82780;BMP280;72511;45.120;20.720;2023-08-31T23:05:24;100511.94;;;20.41
82780;BMP280;72511;45.120;20.720;2023-08-31T23:15:25;100527.31;;;20.27
82780;BMP280;72511;45.120;20.720;2023-08-31T23:25:25;100535.66;;;20.38
82780;BMP280;72511;45.120;20.720;2023-08-31T23:35:26;100521.81;;;20.27
82780;BMP280;72511;45.120;20.720;2023-08-31T23:45:27;100550.94;;;20.19
82780;BMP280;72511;45.120;20.720;2023-08-31T23:55:27;100561.63;;;20.12
